Time;durP1;ratioP1;P1;durP2;ratioP2;P2;SDS_P1;SDS_P2;PMS_P1;PMS_P2;Temp;Humidity;BMP_temperature;BMP_pressure;BME280_temperature;BME280_humidity;BME280_pressure;Samples;Min_cycle;Max_cycle;Signal;HPM_P1;HPM_P2
2022/12/30 00:01:10;;;;;;;;;;;;;;;11.15;51.57;100068.38;4953402;28;7367;-73
2022/12/30 00:03:36;;;;;;;;;;;;;;;11.18;51.29;100062.50;4947060;28;7142;-72
2022/12/30 00:06:05;;;;;;;;;;;;;;;11.16;51.64;100056.44;4980906;28;6800;-72
2022/12/30 00:08:46;;;;;;;;;;;;;;;11.13;51.27;100070.00;4947524;28;6964;-72
2022/12/30 00:11:30;;;;;;;;;;;;;;;11.11;51.64;100063.94;4947646;28;6807;-72
2022/12/30 00:34:29;;;;;;;;;;;;;;;11.03;51.66;100067.88;4981169;28;6788;-72
2022/12/30 00:36:57;;;;;;;;;;;;;;;11.02;51.43;100067.00;4959598;28;6804;-72
2022/12/30 00:39:23;;;;;;;;;;;;;;;11.04;51.62;100059.38;4965315;28;6804;-72
2022/12/30 00:44:33;;;;;;;;;;;;;;;11.02;51.66;100072.13;4960933;28;6800;-72
2022/12/30 00:47:01;;;;;;;;;;;;;;;11.06;51.45;100070.56;4979695;28;6978;-73
2022/12/30 00:57:40;;;;;;;;;;;;;;;10.94;51.76;100078.63;4955721;28;6780;-73
2022/12/30 01:00:12;;;;;;;;;;;;;;;10.92;51.81;100080.25;4981756;28;6788;-72
2022/12/30 01:02:37;;;;;;;;;;;;;;;10.90;51.38;100082.75;4989064;28;12180;-73
2022/12/30 01:05:04;;;;;;;;;;;;;;;10.87;51.66;100080.06;4966160;28;6796;-72
2022/12/30 01:07:30;;;;;;;;;;;;;;;10.81;51.34;100075.56;4963322;28;6808;-73
2022/12/30 01:09:57;;;;;;;;;;;;;;;10.79;51.82;100083.97;4961792;28;6859;-73
2022/12/30 01:12:23;;;;;;;;;;;;;;;10.73;51.99;100081.19;4963137;28;6796;-72
2022/12/30 01:14:53;;;;;;;;;;;;;;;10.72;51.52;100082.84;4977257;28;7857;-72
2022/12/30 01:17:24;;;;;;;;;;;;;;;10.68;52.07;100078.44;4963001;28;7084;-73
2022/12/30 01:19:50;;;;;;;;;;;;;;;10.66;52.21;100088.59;4962276;28;6876;-73
2022/12/30 01:22:16;;;;;;;;;;;;;;;10.64;52.28;100081.66;4959234;28;7207;-72
2022/12/30 01:24:42;;;;;;;;;;;;;;;10.62;52.17;100083.28;4958159;28;6788;-72
2022/12/30 01:27:08;;;;;;;;;;;;;;;10.60;52.16;100090.03;4988117;28;6772;-72
2022/12/30 01:29:38;;;;;;;;;;;;;;;10.59;52.60;100085.72;4960991;28;6788;-73
2022/12/30 01:32:19;;;;;;;;;;;;;;;10.58;52.45;100100.22;4964302;28;6792;-72
2022/12/30 01:34:46;;;;;;;;;;;;;;;10.56;52.36;100099.28;4963960;28;7157;-72
2022/12/30 01:37:13;;;;;;;;;;;;;;;10.56;52.41;100104.41;4963494;28;6970;-73
2022/12/30 01:39:39;;;;;;;;;;;;;;;10.56;52.41;100114.66;4981179;28;7351;-72
2022/12/30 01:42:26;;;;;;;;;;;;;;;10.53;52.85;100114.53;4958642;28;7730;-72
2022/12/30 01:45:14;;;;;;;;;;;;;;;10.52;52.81;100117.88;4966553;28;7007;-72
2022/12/30 01:47:58;;;;;;;;;;;;;;;10.48;52.92;100124.56;4978182;28;8010;-72
2022/12/30 01:50:38;;;;;;;;;;;;;;;10.46;52.80;100126.16;4962842;28;6808;-72
2022/12/30 01:53:39;;;;;;;;;;;;;;;10.42;53.15;100120.03;4929724;28;8758;-73
2022/12/30 01:56:16;;;;;;;;;;;;;;;10.43;52.83;100115.78;4956783;28;6800;-72
2022/12/30 01:58:51;;;;;;;;;;;;;;;10.42;52.86;100112.34;4954537;28;6808;-73
2022/12/30 02:01:18;;;;;;;;;;;;;;;10.40;52.83;100111.38;4924155;28;6796;-73
2022/12/30 02:04:04;;;;;;;;;;;;;;;10.36;53.02;100109.50;4944980;29;6808;-72
2022/12/30 02:06:59;;;;;;;;;;;;;;;10.35;52.95;100115.44;4945006;28;7004;-73
2022/12/30 02:09:26;;;;;;;;;;;;;;;10.31;53.43;100112.66;4929191;28;7306;-73
2022/12/30 02:11:52;;;;;;;;;;;;;;;10.31;53.13;100115.22;4957709;28;6788;-73
2022/12/30 02:14:19;;;;;;;;;;;;;;;10.28;53.19;100116.84;4954028;28;6780;-72
2022/12/30 02:17:03;;;;;;;;;;;;;;;10.30;53.71;100118.59;4956616;28;6868;-72
2022/12/30 02:19:50;;;;;;;;;;;;;;;10.27;53.78;100125.31;4942557;28;6816;-72
2022/12/30 02:23:11;;;;;;;;;;;;;;;10.28;53.34;100127.09;4952367;28;6804;-72
2022/12/30 02:25:43;;;;;;;;;;;;;;;10.28;54.36;100126.22;4947508;28;6820;-72
2022/12/30 02:28:26;;;;;;;;;;;;;;;10.31;54.00;100135.72;4960933;28;7010;-73
2022/12/30 02:31:20;;;;;;;;;;;;;;;10.30;54.17;100139.94;4960040;28;6968;-73
2022/12/30 02:34:02;;;;;;;;;;;;;;;10.32;53.60;100138.31;4947784;28;6944;-72
2022/12/30 02:36:44;;;;;;;;;;;;;;;10.33;53.80;100134.97;4959472;28;6792;-73
2022/12/30 02:40:07;;;;;;;;;;;;;;;10.35;53.96;100130.81;4955434;28;6812;-73
2022/12/30 02:45:57;;;;;;;;;;;;;;;10.32;54.48;100133.22;4941696;28;6808;-72
2022/12/30 02:48:30;;;;;;;;;;;;;;;10.33;54.62;100117.03;4960849;28;6808;-72
2022/12/30 02:53:45;;;;;;;;;;;;;;;10.34;53.87;100120.47;4959479;28;6804;-72
2022/12/30 02:56:11;;;;;;;;;;;;;;;10.34;54.25;100121.38;4947813;28;6772;-72
2022/12/30 02:58:48;;;;;;;;;;;;;;;10.35;54.19;100127.34;4942823;28;6816;-73
2022/12/30 03:05:12;;;;;;;;;;;;;;;10.32;54.32;100122.97;4934211;28;6820;-73
2022/12/30 03:07:59;;;;;;;;;;;;;;;10.33;54.21;100121.28;4915170;28;7282;-72
2022/12/30 03:14:04;;;;;;;;;;;;;;;10.25;54.10;100114.13;4880844;29;7231;-73
2022/12/30 03:16:52;;;;;;;;;;;;;;;10.22;54.91;100108.88;4926171;28;6800;-72
2022/12/30 03:19:25;;;;;;;;;;;;;;;10.18;54.24;100114.66;4957780;28;6939;-72
2022/12/30 03:21:54;;;;;;;;;;;;;;;10.13;54.42;100099.09;4955569;28;7117;-73
2022/12/30 03:27:20;;;;;;;;;;;;;;;10.06;55.01;100102.19;4952558;28;6793;-72
2022/12/30 03:29:57;;;;;;;;;;;;;;;10.04;55.01;100108.91;4962232;28;6812;-73
2022/12/30 03:32:23;;;;;;;;;;;;;;;10.03;55.22;100108.84;4962117;28;6986;-73
2022/12/30 03:34:50;;;;;;;;;;;;;;;10.01;55.21;100090.84;4947649;28;6808;-72
2022/12/30 03:37:27;;;;;;;;;;;;;;;9.97;55.17;100088.97;4959929;28;6820;-72
2022/12/30 03:40:10;;;;;;;;;;;;;;;9.96;54.81;100087.22;4959801;28;6800;-72
2022/12/30 03:42:36;;;;;;;;;;;;;;;9.94;55.05;100086.25;4958827;28;7631;-72
2022/12/30 03:45:03;;;;;;;;;;;;;;;9.92;55.16;100083.66;4943470;28;6784;-72
2022/12/30 03:47:30;;;;;;;;;;;;;;;9.92;55.10;100078.53;4953035;28;6823;-72
2022/12/30 03:49:58;;;;;;;;;;;;;;;9.93;55.56;100077.72;4944758;28;8053;-73
2022/12/30 03:52:23;;;;;;;;;;;;;;;9.96;56.07;100075.28;4960909;28;7044;-73
2022/12/30 03:54:50;;;;;;;;;;;;;;;9.99;56.03;100072.88;4961806;28;7317;-72
2022/12/30 03:57:17;;;;;;;;;;;;;;;10.02;55.56;100067.00;4926950;28;6868;-72
2022/12/30 03:59:44;;;;;;;;;;;;;;;10.01;56.48;100062.69;4950001;28;8870;-72
2022/12/30 04:02:09;;;;;;;;;;;;;;;10.02;55.74;100058.47;4925095;28;8066;-72
2022/12/30 04:04:35;;;;;;;;;;;;;;;10.04;55.82;100047.44;4941990;28;6768;-72
2022/12/30 04:07:02;;;;;;;;;;;;;;;10.04;55.49;100050.00;4953686;28;6985;-72
2022/12/30 04:09:28;;;;;;;;;;;;;;;10.04;55.96;100050.00;4925539;28;7000;-73
2022/12/30 04:11:53;;;;;;;;;;;;;;;10.06;55.95;100053.53;4942578;28;7214;-73
2022/12/30 04:14:19;;;;;;;;;;;;;;;10.05;55.69;100045.78;4944658;28;6780;-72
2022/12/30 04:16:45;;;;;;;;;;;;;;;10.05;55.93;100050.91;4945472;28;6937;-72
2022/12/30 04:19:11;;;;;;;;;;;;;;;10.04;55.66;100052.56;4962182;28;7181;-72
2022/12/30 04:21:37;;;;;;;;;;;;;;;10.05;55.36;100050.91;4917628;28;7192;-72
2022/12/30 04:24:02;;;;;;;;;;;;;;;10.04;55.65;100065.38;4956803;28;6981;-73
2022/12/30 04:26:28;;;;;;;;;;;;;;;10.03;55.67;100058.50;4959153;28;6970;-72
2022/12/30 04:28:54;;;;;;;;;;;;;;;10.03;56.38;100066.19;4962080;28;7216;-72
2022/12/30 04:31:19;;;;;;;;;;;;;;;10.02;55.42;100066.16;4959078;28;8023;-73
2022/12/30 04:33:52;;;;;;;;;;;;;;;10.03;56.34;100068.75;4929584;28;7066;-73
2022/12/30 04:36:19;;;;;;;;;;;;;;;10.06;56.11;100068.03;4960418;28;6879;-72
2022/12/30 04:38:45;;;;;;;;;;;;;;;10.04;56.42;100059.41;4962977;28;6951;-73
2022/12/30 04:41:12;;;;;;;;;;;;;;;10.04;56.11;100064.53;4954064;28;7307;-72
2022/12/30 04:43:37;;;;;;;;;;;;;;;10.02;55.63;100064.44;4926367;28;7230;-72
2022/12/30 04:46:04;;;;;;;;;;;;;;;9.99;56.43;100061.75;4936896;28;6804;-73
2022/12/30 04:48:30;;;;;;;;;;;;;;;10.01;56.05;100075.50;4948035;28;7203;-73
2022/12/30 04:50:56;;;;;;;;;;;;;;;10.05;56.22;100071.38;4948229;28;6820;-72
2022/12/30 04:53:21;;;;;;;;;;;;;;;10.06;55.54;100068.03;4959131;28;7762;-72
2022/12/30 04:55:52;;;;;;;;;;;;;;;10.07;55.40;100059.53;4965105;28;6795;-72
2022/12/30 04:58:18;;;;;;;;;;;;;;;10.06;55.30;100053.53;4988548;28;6799;-73
2022/12/30 05:00:43;;;;;;;;;;;;;;;10.06;55.95;100058.66;4981074;28;6956;-73
2022/12/30 05:03:09;;;;;;;;;;;;;;;10.02;55.16;100051.63;4960543;28;7078;-73
2022/12/30 05:05:35;;;;;;;;;;;;;;;9.99;55.64;100062.66;4966125;28;7837;-72
2022/12/30 05:08:01;;;;;;;;;;;;;;;9.98;55.72;100065.13;4964609;28;6852;-73
2022/12/30 05:10:26;;;;;;;;;;;;;;;9.97;55.64;100065.94;4965311;28;8420;-73
2022/12/30 05:12:52;;;;;;;;;;;;;;;9.98;55.94;100070.25;4961204;28;6776;-72
2022/12/30 05:15:18;;;;;;;;;;;;;;;10.02;55.52;100072.13;4966695;28;6847;-72
2022/12/30 05:17:43;;;;;;;;;;;;;;;10.00;55.91;100069.50;4956994;28;6764;-72
2022/12/30 05:20:09;;;;;;;;;;;;;;;10.03;55.22;100078.13;4958660;28;6784;-73
2022/12/30 05:22:35;;;;;;;;;;;;;;;10.04;55.68;100085.00;4959278;28;6783;-72
2022/12/30 05:27:44;;;;;;;;;;;;;;;10.07;55.27;100085.13;4958683;28;6797;-72
2022/12/30 05:30:10;;;;;;;;;;;;;;;10.11;55.62;100084.47;4963187;28;8149;-72
2022/12/30 05:32:36;;;;;;;;;;;;;;;10.11;54.87;100077.66;4962708;28;6933;-73
2022/12/30 05:35:02;;;;;;;;;;;;;;;10.10;54.87;100073.34;4964494;28;6796;-72
2022/12/30 05:37:27;;;;;;;;;;;;;;;10.12;55.58;100073.44;4963157;28;7307;-72
2022/12/30 05:39:53;;;;;;;;;;;;;;;10.11;55.56;100061.44;4960312;28;6780;-73
2022/12/30 05:42:19;;;;;;;;;;;;;;;10.13;55.25;100060.66;4977641;28;6950;-72
2022/12/30 05:44:45;;;;;;;;;;;;;;;10.13;55.65;100050.44;4959676;28;6840;-73
2022/12/30 05:47:11;;;;;;;;;;;;;;;10.13;55.04;100042.75;4958649;28;6792;-73
2022/12/30 05:49:36;;;;;;;;;;;;;;;10.16;55.81;100039.44;4957092;28;6772;-73
2022/12/30 05:52:02;;;;;;;;;;;;;;;10.19;55.06;100046.41;4961150;28;6960;-72
2022/12/30 05:54:27;;;;;;;;;;;;;;;10.21;55.66;100043.09;4956314;28;7131;-73
2022/12/30 05:56:53;;;;;;;;;;;;;;;10.22;55.66;100038.84;4973974;28;6983;-72
2022/12/30 05:59:19;;;;;;;;;;;;;;;10.26;55.07;100040.75;4958831;28;6776;-72
2022/12/30 06:01:44;;;;;;;;;;;;;;;10.26;55.56;100031.34;4979328;28;6914;-73
2022/12/30 06:04:10;;;;;;;;;;;;;;;10.28;55.62;100034.88;4977800;28;6915;-72
2022/12/30 06:06:36;;;;;;;;;;;;;;;10.30;54.97;100031.50;4974762;28;6757;-73
2022/12/30 06:09:01;;;;;;;;;;;;;;;10.37;55.15;100025.81;4962518;28;8143;-73
2022/12/30 06:11:27;;;;;;;;;;;;;;;10.41;55.64;100014.91;4963974;28;6764;-72
2022/12/30 06:13:52;;;;;;;;;;;;;;;10.44;54.98;100009.06;4958842;28;7821;-73
2022/12/30 06:16:18;;;;;;;;;;;;;;;10.52;55.53;100012.81;4961418;28;6784;-73
2022/12/30 06:18:44;;;;;;;;;;;;;;;10.57;54.83;99995.94;4976323;28;6772;-73
2022/12/30 06:21:09;;;;;;;;;;;;;;;10.59;55.25;99999.44;4978092;28;6840;-73
2022/12/30 06:23:35;;;;;;;;;;;;;;;10.63;55.34;99996.22;4951902;28;6844;-73
2022/12/30 06:26:00;;;;;;;;;;;;;;;10.67;54.95;100008.34;4955080;28;6788;-72
2022/12/30 06:28:28;;;;;;;;;;;;;;;10.73;54.77;99996.59;4970435;28;7206;-72
2022/12/30 06:30:54;;;;;;;;;;;;;;;10.74;54.51;99993.22;4962667;28;6917;-73
2022/12/30 06:33:20;;;;;;;;;;;;;;;10.78;54.51;100002.75;4956619;28;6768;-72
2022/12/30 06:35:47;;;;;;;;;;;;;;;10.83;54.44;100003.84;4954636;28;6773;-72
2022/12/30 06:38:14;;;;;;;;;;;;;;;10.83;54.16;100001.28;4960992;28;6863;-72
2022/12/30 06:40:39;;;;;;;;;;;;;;;10.84;54.93;99987.66;4959355;28;6784;-74
2022/12/30 06:43:05;;;;;;;;;;;;;;;10.85;54.18;99989.38;4957688;28;7107;-72
2022/12/30 06:45:31;;;;;;;;;;;;;;;10.86;54.07;99988.56;4974082;28;6779;-72
2022/12/30 06:47:56;;;;;;;;;;;;;;;10.87;53.81;99987.75;4947624;28;7614;-72
2022/12/30 06:50:23;;;;;;;;;;;;;;;10.86;54.50;99988.56;4957484;28;6768;-72
2022/12/30 06:52:49;;;;;;;;;;;;;;;10.85;53.94;99986.81;4979131;28;6772;-73
2022/12/30 06:55:14;;;;;;;;;;;;;;;10.87;54.24;99992.88;4990581;28;6856;-72
2022/12/30 06:57:40;;;;;;;;;;;;;;;10.86;54.23;99988.56;4977604;28;7216;-72
2022/12/30 07:00:08;;;;;;;;;;;;;;;10.84;54.09;99985.09;4945855;28;7246;-73
2022/12/30 07:02:34;;;;;;;;;;;;;;;10.87;54.42;99987.75;4954247;28;7003;-73
2022/12/30 07:05:00;;;;;;;;;;;;;;;10.89;54.37;99987.84;4965843;28;7242;-72
2022/12/30 07:07:25;;;;;;;;;;;;;;;10.93;54.06;99989.69;4945343;28;7288;-73
2022/12/30 07:09:51;;;;;;;;;;;;;;;10.94;54.25;99976.94;4960829;28;6788;-72
2022/12/30 07:12:17;;;;;;;;;;;;;;;10.94;53.99;99959.00;4960913;28;6780;-72
2022/12/30 07:14:44;;;;;;;;;;;;;;;10.98;54.17;99963.41;4966358;28;7119;-72
2022/12/30 07:17:09;;;;;;;;;;;;;;;11.02;53.88;99958.44;4963174;28;6792;-73
2022/12/30 07:19:35;;;;;;;;;;;;;;;11.05;54.50;99945.72;4969313;28;6772;-72
2022/12/30 07:22:00;;;;;;;;;;;;;;;11.09;54.03;99939.88;4961379;28;6819;-72
2022/12/30 07:24:26;;;;;;;;;;;;;;;11.11;54.49;99930.56;4955807;28;6764;-72
2022/12/30 07:26:52;;;;;;;;;;;;;;;11.13;54.02;99926.38;4960759;28;7487;-72
2022/12/30 07:29:17;;;;;;;;;;;;;;;11.20;54.29;99932.59;4963147;28;7168;-73
2022/12/30 07:31:43;;;;;;;;;;;;;;;11.27;54.55;99928.56;4959648;28;7225;-73
2022/12/30 07:34:09;;;;;;;;;;;;;;;11.29;54.10;99938.06;4959200;28;6970;-73
2022/12/30 07:36:34;;;;;;;;;;;;;;;11.32;53.18;99933.06;4959966;28;6772;-72
2022/12/30 07:39:00;;;;;;;;;;;;;;;11.36;53.54;99928.91;4962794;28;6788;-72
2022/12/30 07:41:27;;;;;;;;;;;;;;;11.38;53.70;99922.13;4953824;28;7039;-72
2022/12/30 07:43:53;;;;;;;;;;;;;;;11.43;53.47;99915.50;4990766;28;6815;-73
2022/12/30 07:46:19;;;;;;;;;;;;;;;11.47;53.42;99931.88;4992987;28;7190;-72
2022/12/30 07:48:45;;;;;;;;;;;;;;;11.53;53.30;99929.53;4957591;28;6804;-72
2022/12/30 07:51:14;;;;;;;;;;;;;;;11.54;53.05;99926.16;4978089;28;6993;-72
2022/12/30 07:53:41;;;;;;;;;;;;;;;11.59;52.92;99922.06;4959071;28;6812;-72
2022/12/30 07:56:11;;;;;;;;;;;;;;;11.59;52.95;99913.47;4966437;28;7086;-72
2022/12/30 07:58:37;;;;;;;;;;;;;;;11.60;52.84;99913.53;4961934;28;6788;-72
2022/12/30 08:01:11;;;;;;;;;;;;;;;11.63;53.23;99912.78;4961217;28;6804;-72
2022/12/30 08:03:38;;;;;;;;;;;;;;;11.63;52.95;99902.50;4962362;28;6804;-72
2022/12/30 08:06:07;;;;;;;;;;;;;;;11.66;52.99;99894.91;4978288;28;7124;-72
2022/12/30 08:08:33;;;;;;;;;;;;;;;11.70;52.80;99889.09;4965772;28;6804;-73
2022/12/30 08:11:01;;;;;;;;;;;;;;;11.74;53.10;99880.66;4944076;28;7268;-73
2022/12/30 08:13:30;;;;;;;;;;;;;;;11.78;52.81;99872.25;4953579;28;7229;-73
2022/12/30 08:15:56;;;;;;;;;;;;;;;11.81;52.73;99856.94;4972893;28;6967;-73
2022/12/30 08:18:21;;;;;;;;;;;;;;;11.85;52.17;99847.66;4987742;28;6776;-73
2022/12/30 08:20:47;;;;;;;;;;;;;;;11.84;52.66;99851.06;4978702;28;6939;-73
2022/12/30 08:23:13;;;;;;;;;;;;;;;11.87;52.40;99847.69;4973482;28;7218;-73
2022/12/30 08:25:39;;;;;;;;;;;;;;;11.86;52.14;99851.09;4960509;28;7033;-73
2022/12/30 08:28:05;;;;;;;;;;;;;;;11.88;52.28;99846.88;4957808;28;6963;-73
2022/12/30 08:30:31;;;;;;;;;;;;;;;11.89;52.54;99849.50;4965391;28;6812;-73
2022/12/30 08:32:56;;;;;;;;;;;;;;;11.88;52.24;99846.88;4991758;28;7535;-73
2022/12/30 08:35:22;;;;;;;;;;;;;;;11.89;52.70;99853.78;4958150;28;6792;-73
2022/12/30 08:37:47;;;;;;;;;;;;;;;11.88;52.75;99850.31;4965196;28;7000;-73
2022/12/30 08:40:13;;;;;;;;;;;;;;;11.89;52.35;99840.94;4961524;28;6991;-73
2022/12/30 08:42:39;;;;;;;;;;;;;;;11.91;52.42;99841.84;4978827;28;6772;-73
2022/12/30 08:45:06;;;;;;;;;;;;;;;11.92;52.32;99838.47;4960855;28;6768;-73
2022/12/30 08:47:34;;;;;;;;;;;;;;;11.96;52.72;99835.16;4957093;28;6792;-73
2022/12/30 08:50:00;;;;;;;;;;;;;;;12.01;52.11;99807.94;4957726;28;6784;-73
2022/12/30 08:52:27;;;;;;;;;;;;;;;12.07;52.67;99808.19;4958314;28;8075;-72
2022/12/30 08:54:53;;;;;;;;;;;;;;;12.11;52.38;99805.72;4960611;28;6804;-73
2022/12/30 08:57:19;;;;;;;;;;;;;;;12.16;52.49;99791.31;4959820;28;7856;-73
2022/12/30 08:59:45;;;;;;;;;;;;;;;12.20;52.16;99800.88;4956496;28;7015;-72
2022/12/30 09:02:13;;;;;;;;;;;;;;;12.28;52.71;99795.97;4963450;28;6836;-73
2022/12/30 09:04:39;;;;;;;;;;;;;;;12.31;52.79;99793.47;4959211;28;8110;-73
2022/12/30 09:07:05;;;;;;;;;;;;;;;12.38;52.25;99792.00;4951443;28;7267;-73
2022/12/30 09:09:31;;;;;;;;;;;;;;;12.45;52.79;99786.19;4966170;28;6781;-73
2022/12/30 09:11:56;;;;;;;;;;;;;;;12.51;51.88;99794.09;4986029;28;6796;-73
2022/12/30 09:14:23;;;;;;;;;;;;;;;12.55;51.94;99793.34;4976107;28;6841;-73
2022/12/30 09:16:49;;;;;;;;;;;;;;;12.60;51.71;99788.34;4959297;28;6784;-73
2022/12/30 09:19:16;;;;;;;;;;;;;;;12.68;52.18;99778.31;4989152;28;7303;-73
2022/12/30 09:21:42;;;;;;;;;;;;;;;12.74;51.38;99781.94;4965066;28;6804;-73
2022/12/30 09:24:09;;;;;;;;;;;;;;;12.81;51.73;99774.41;4963874;28;6772;-73
2022/12/30 09:26:35;;;;;;;;;;;;;;;12.87;51.73;99787.44;4960399;28;6792;-73
2022/12/30 09:29:02;;;;;;;;;;;;;;;12.92;51.43;99773.00;4960588;28;7137;-73
2022/12/30 09:31:28;;;;;;;;;;;;;;;12.97;51.68;99762.84;4952666;28;7186;-73
2022/12/30 09:33:55;;;;;;;;;;;;;;;13.00;50.99;99761.25;4944913;28;9885;-73
2022/12/30 09:36:21;;;;;;;;;;;;;;;13.06;51.83;99763.13;4943666;28;7019;-73
2022/12/30 09:38:48;;;;;;;;;;;;;;;13.11;51.13;99748.66;4944482;28;6788;-73
2022/12/30 09:45:00;;;;;;;;;;;;;;;13.24;51.54;99743.88;4944097;28;6956;-73
2022/12/30 09:47:50;;;;;;;;;;;;;;;13.30;50.75;99746.56;4945565;28;7038;-73
2022/12/30 09:50:34;;;;;;;;;;;;;;;13.38;50.63;99744.22;4946428;28;6896;-74
2022/12/30 09:53:08;;;;;;;;;;;;;;;13.44;50.99;99728.91;4950730;28;6839;-73
2022/12/30 09:55:53;;;;;;;;;;;;;;;13.53;50.63;99734.34;4940614;28;6780;-74
2022/12/30 09:58:28;;;;;;;;;;;;;;;13.61;50.67;99726.78;4969845;28;7999;-75
2022/12/30 10:01:05;;;;;;;;;;;;;;;13.67;50.62;99716.66;4948660;28;6824;-74
2022/12/30 10:03:31;;;;;;;;;;;;;;;13.71;50.42;99725.34;4973326;28;6947;-74
2022/12/30 10:06:20;;;;;;;;;;;;;;;13.78;50.82;99739.22;4961338;28;6980;-74
2022/12/30 10:08:57;;;;;;;;;;;;;;;13.79;50.63;99730.66;4958577;28;6800;-74
2022/12/30 10:12:14;;;;;;;;;;;;;;;13.84;50.64;99726.50;4972465;28;7017;-74
2022/12/30 10:14:54;;;;;;;;;;;;;;;13.88;50.41;99710.28;4978208;28;6824;-77
2022/12/30 10:18:00;;;;;;;;;;;;;;;13.90;50.38;99708.59;4957088;28;6939;-75
2022/12/30 10:21:06;;;;;;;;;;;;;;;13.93;50.18;99693.22;4957468;28;6815;-74
2022/12/30 10:24:12;;;;;;;;;;;;;;;13.93;49.24;99685.50;4960624;28;7377;-73
2022/12/30 10:26:47;;;;;;;;;;;;;;;13.92;49.62;99667.44;4955999;28;6808;-73
2022/12/30 10:29:32;;;;;;;;;;;;;;;13.88;48.67;99666.47;4975605;28;6812;-74
2022/12/30 10:32:19;;;;;;;;;;;;;;;13.90;49.20;99667.38;4991979;28;7050;-74
2022/12/30 10:35:16;;;;;;;;;;;;;;;13.92;48.62;99664.84;4954945;28;6828;-73
2022/12/30 10:37:41;;;;;;;;;;;;;;;13.90;49.23;99651.94;4976725;28;6828;-74
2022/12/30 10:40:13;;;;;;;;;;;;;;;13.90;48.23;99651.94;4975475;28;7127;-74
2022/12/30 10:42:58;;;;;;;;;;;;;;;13.92;48.44;99639.97;4961117;28;6808;-74
2022/12/30 10:45:54;;;;;;;;;;;;;;;13.89;48.81;99615.00;4967263;28;6812;-74
2022/12/30 10:48:51;;;;;;;;;;;;;;;13.93;48.61;99608.22;4966978;28;7205;-75
2022/12/30 10:51:18;;;;;;;;;;;;;;;13.96;48.72;99610.84;4985791;28;7328;-74
2022/12/30 10:53:48;;;;;;;;;;;;;;;13.98;48.48;99605.75;4990753;28;6807;-74
2022/12/30 10:56:29;;;;;;;;;;;;;;;13.97;48.21;99596.28;4990493;28;7108;-74
2022/12/30 10:59:10;;;;;;;;;;;;;;;13.97;47.64;99581.69;4962852;28;6788;-74
2022/12/30 11:01:38;;;;;;;;;;;;;;;13.99;47.89;99569.69;4990942;28;6808;-74
2022/12/30 11:04:04;;;;;;;;;;;;;;;13.96;48.13;99567.06;4966727;28;6789;-74
2022/12/30 11:06:36;;;;;;;;;;;;;;;13.99;48.23;99556.81;4958976;28;6796;-74
2022/12/30 11:09:11;;;;;;;;;;;;;;;14.04;48.04;99549.19;4965300;28;6784;-74
2022/12/30 11:14:43;;;;;;;;;;;;;;;14.05;47.33;99521.72;4962584;28;6804;-74
2022/12/30 11:17:14;;;;;;;;;;;;;;;14.01;47.87;99508.78;4993420;28;6939;-74
2022/12/30 11:19:48;;;;;;;;;;;;;;;14.02;47.79;99496.75;4963504;28;6995;-74
2022/12/30 11:22:14;;;;;;;;;;;;;;;14.02;47.60;99491.59;4976396;28;6876;-74
2022/12/30 11:24:54;;;;;;;;;;;;;;;14.01;47.29;99488.19;4960265;28;6836;-75
2022/12/30 11:27:49;;;;;;;;;;;;;;;14.01;47.29;99479.56;4964475;28;6811;-74
2022/12/30 11:30:38;;;;;;;;;;;;;;;14.01;46.70;99458.97;4981966;28;7204;-74
2022/12/30 11:33:17;;;;;;;;;;;;;;;14.00;47.27;99470.97;4963866;28;8364;-74
2022/12/30 11:35:47;;;;;;;;;;;;;;;14.02;47.16;99476.16;4946144;28;7329;-74
2022/12/30 11:38:49;;;;;;;;;;;;;;;14.05;47.13;99459.88;4962986;28;7198;-75
2022/12/30 11:41:24;;;;;;;;;;;;;;;14.08;47.30;99453.09;4952683;28;6943;-74
2022/12/30 11:44:10;;;;;;;;;;;;;;;14.10;47.20;99442.78;4976560;28;6860;-74
2022/12/30 11:46:43;;;;;;;;;;;;;;;14.09;46.82;99434.22;4964367;28;6943;-75
2022/12/30 11:49:48;;;;;;;;;;;;;;;14.08;46.85;99429.00;4991794;28;6812;-74
2022/12/30 11:52:28;;;;;;;;;;;;;;;14.09;47.18;99400.72;4986948;28;7064;-74
2022/12/30 11:54:59;;;;;;;;;;;;;;;14.13;47.53;99391.34;4962520;28;8431;-74
2022/12/30 11:57:37;;;;;;;;;;;;;;;14.15;48.00;99392.22;4968427;28;6792;-74
2022/12/30 12:00:26;;;;;;;;;;;;;;;14.20;47.58;99382.88;4988364;28;6899;-74
2022/12/30 12:03:05;;;;;;;;;;;;;;;14.25;47.11;99383.81;4973306;28;12870;-74
2022/12/30 12:05:42;;;;;;;;;;;;;;;14.29;47.21;99388.19;4988340;28;6989;-74
2022/12/30 12:08:31;;;;;;;;;;;;;;;14.33;47.52;99372.75;4979024;28;8024;-74
2022/12/30 12:11:04;;;;;;;;;;;;;;;14.33;47.08;99360.72;4960646;28;7008;-75
2022/12/30 12:14:20;;;;;;;;;;;;;;;14.34;47.46;99352.16;4962313;28;8138;-75
2022/12/30 12:17:12;;;;;;;;;;;;;;;14.34;47.70;99344.44;4949051;28;7307;-74
2022/12/30 12:19:53;;;;;;;;;;;;;;;14.37;47.16;99322.97;4960112;28;7437;-74
2022/12/30 12:22:46;;;;;;;;;;;;;;;14.38;47.88;99323.00;4979087;28;7052;-75
2022/12/30 12:25:25;;;;;;;;;;;;;;;14.35;47.35;99314.34;4968399;28;7275;-74
2022/12/30 12:27:52;;;;;;;;;;;;;;;14.39;47.60;99309.28;4964785;28;6999;-74
2022/12/30 12:30:19;;;;;;;;;;;;;;;14.43;46.79;99298.16;4992361;28;6837;-74
2022/12/30 12:33:21;;;;;;;;;;;;;;;14.46;46.48;99286.19;4994162;28;6788;-73
2022/12/30 12:36:23;;;;;;;;;;;;;;;14.45;46.56;99269.81;4990853;28;6987;-74
2022/12/30 12:39:18;;;;;;;;;;;;;;;14.48;47.61;99279.31;4990162;28;6799;-74
2022/12/30 12:41:52;;;;;;;;;;;;;;;14.52;47.04;99251.03;4988848;28;6868;-74
2022/12/30 12:44:47;;;;;;;;;;;;;;;14.53;47.72;99263.06;4963417;28;6804;-73
2022/12/30 12:47:25;;;;;;;;;;;;;;;14.43;47.20;99256.91;4974106;28;7277;-73
2022/12/30 12:50:10;;;;;;;;;;;;;;;14.35;47.55;99247.34;4963252;28;6961;-73
2022/12/30 12:52:54;;;;;;;;;;;;;;;14.17;49.08;99223.03;4958745;28;6816;-74
2022/12/30 12:55:49;;;;;;;;;;;;;;;13.96;48.71;99221.03;4977680;28;7884;-74
2022/12/30 12:58:55;;;;;;;;;;;;;;;13.74;50.35;99215.53;4986023;28;6808;-74
2022/12/30 13:01:33;;;;;;;;;;;;;;;13.57;51.39;99202.38;4967953;28;6820;-74
2022/12/30 13:04:34;;;;;;;;;;;;;;;13.45;51.67;99200.47;4953814;28;7453;-74
2022/12/30 13:08:00;;;;;;;;;;;;;;;13.34;52.25;99205.41;4955506;28;6896;-73
2022/12/30 13:11:08;;;;;;;;;;;;;;;13.25;52.70;99200.94;4959485;28;6812;-73
2022/12/30 13:14:38;;;;;;;;;;;;;;;13.15;52.59;99181.03;4953562;28;6830;-73
2022/12/30 13:17:25;;;;;;;;;;;;;;;13.09;53.42;99168.94;4956945;28;6828;-74
2022/12/30 13:20:02;;;;;;;;;;;;;;;13.08;53.61;99153.47;4960815;28;6828;-76
2022/12/30 13:22:36;;;;;;;;;;;;;;;13.03;54.07;99145.66;4972701;28;6816;-74
2022/12/30 13:25:15;;;;;;;;;;;;;;;13.01;54.99;99130.22;4988890;28;6871;-74
2022/12/30 13:27:46;;;;;;;;;;;;;;;13.00;54.93;99113.06;4961753;28;7426;-75
2022/12/30 13:30:19;;;;;;;;;;;;;;;12.99;55.55;99118.19;4985848;28;6831;-74
2022/12/30 13:33:19;;;;;;;;;;;;;;;12.97;55.66;99094.13;4972150;28;6796;-74
2022/12/30 13:36:04;;;;;;;;;;;;;;;12.98;54.83;99070.16;4963729;28;6960;-74
2022/12/30 13:39:03;;;;;;;;;;;;;;;12.96;55.01;99051.25;4959795;28;7195;-74
2022/12/30 13:41:40;;;;;;;;;;;;;;;12.94;55.34;99028.09;4990846;28;6795;-74
2022/12/30 13:44:16;;;;;;;;;;;;;;;12.94;55.51;99016.91;4980577;28;6796;-74
2022/12/30 13:46:53;;;;;;;;;;;;;;;12.91;55.82;98999.75;4988687;28;6998;-74
2022/12/30 13:49:31;;;;;;;;;;;;;;;12.92;56.07;98999.75;4990019;28;7159;-75
2022/12/30 13:52:05;;;;;;;;;;;;;;;12.92;55.94;99001.47;4990113;28;7212;-73
2022/12/30 13:54:33;;;;;;;;;;;;;;;12.92;56.17;98989.47;4966361;28;6800;-74
2022/12/30 13:57:03;;;;;;;;;;;;;;;12.92;57.05;98974.03;4965135;28;6784;-73
2022/12/30 13:59:34;;;;;;;;;;;;;;;13.00;57.20;98986.16;4965824;28;6789;-74
2022/12/30 14:02:18;;;;;;;;;;;;;;;13.08;56.91;98981.13;4964694;28;6804;-74
2022/12/30 14:04:53;;;;;;;;;;;;;;;13.12;56.67;98980.34;4957365;28;7309;-74
2022/12/30 14:07:37;;;;;;;;;;;;;;;13.12;57.49;98986.34;4990113;28;7210;-73
2022/12/30 14:10:14;;;;;;;;;;;;;;;13.07;57.67;98988.00;4961243;28;6792;-74
2022/12/30 14:12:43;;;;;;;;;;;;;;;13.05;58.00;98985.38;4992313;28;7242;-74
2022/12/30 14:15:51;;;;;;;;;;;;;;;13.05;57.34;98977.69;4959675;28;6792;-74
2022/12/30 14:18:43;;;;;;;;;;;;;;;13.07;57.95;98959.72;4986000;28;6891;-73
2022/12/30 14:21:15;;;;;;;;;;;;;;;13.04;58.19;98980.25;4961691;28;6800;-73
2022/12/30 14:23:50;;;;;;;;;;;;;;;13.07;58.25;98967.41;4995816;28;7168;-74